Terminal Aerodrome Forecast
Issued by NWS Twin Cities, MN

Home | Current Version | Previous Version | Text Only | Print | Product List | Glossary Off
Versions: 1 2 3 4 5 6 7 8 9 10 11 12 13 14 15 16 17 18 19 20 21 22 23 24 25 26 27

000
FTUS43 KMPX 270902 AAA
TAFMSP
TAF AMD
KMSP 270902Z 2709/2812 11008KT P6SM SCT250
     FM271000 12004KT 6SM BR FEW250
     FM271300 13008KT P6SM SCT040
     FM271700 14011G16KT P6SM SCT050
     FM280200 15008KT P6SM BKN050
     FM280900 14010G15KT P6SM VCTS BKN040CB=

USA.gov is the U.S. government's official web portal to all federal, state and local government web resources and services.